sensor_id;sensor_type;location;lat;lon;timestamp;P1;durP1;ratioP1;P2;durP2;ratioP2
11439;SDS011;5776;51.814;4.510;2023-06-14T00:02:11;2.75;;;1.90;;
11439;SDS011;5776;51.814;4.510;2023-06-14T00:04:36;4.07;;;1.75;;
11439;SDS011;5776;51.814;4.510;2023-06-14T00:07:04;2.70;;;1.90;;
11439;SDS011;5776;51.814;4.510;2023-06-14T00:09:33;3.88;;;1.90;;
11439;SDS011;5776;51.814;4.510;2023-06-14T00:11:59;2.90;;;1.55;;
11439;SDS011;5776;51.814;4.510;2023-06-14T00:14:25;5.75;;;2.08;;
11439;SDS011;5776;51.814;4.510;2023-06-14T00:16:51;2.70;;;1.80;;
11439;SDS011;5776;51.814;4.510;2023-06-14T00:19:24;5.93;;;1.80;;
11439;SDS011;5776;51.814;4.510;2023-06-14T00:21:50;4.32;;;1.90;;
11439;SDS011;5776;51.814;4.510;2023-06-14T00:24:18;2.88;;;1.90;;
11439;SDS011;5776;51.814;4.510;2023-06-14T00:26:45;1.90;;;1.30;;
11439;SDS011;5776;51.814;4.510;2023-06-14T00:29:11;5.32;;;2.08;;
11439;SDS011;5776;51.814;4.510;2023-06-14T00:31:37;3.05;;;2.03;;
11439;SDS011;5776;51.814;4.510;2023-06-14T00:34:03;5.60;;;1.88;;
11439;SDS011;5776;51.814;4.510;2023-06-14T00:36:29;2.20;;;1.30;;
11439;SDS011;5776;51.814;4.510;2023-06-14T00:38:55;2.33;;;1.58;;
11439;SDS011;5776;51.814;4.510;2023-06-14T00:41:21;3.33;;;1.88;;
11439;SDS011;5776;51.814;4.510;2023-06-14T00:43:46;2.88;;;1.77;;
11439;SDS011;5776;51.814;4.510;2023-06-14T00:46:12;4.68;;;1.70;;
11439;SDS011;5776;51.814;4.510;2023-06-14T00:48:38;3.85;;;1.90;;
11439;SDS011;5776;51.814;4.510;2023-06-14T00:51:05;3.88;;;1.92;;
11439;SDS011;5776;51.814;4.510;2023-06-14T00:53:32;2.53;;;1.77;;
11439;SDS011;5776;51.814;4.510;2023-06-14T00:56:01;5.72;;;1.85;;
11439;SDS011;5776;51.814;4.510;2023-06-14T00:58:27;4.50;;;1.67;;
11439;SDS011;5776;51.814;4.510;2023-06-14T01:00:53;3.05;;;1.63;;
11439;SDS011;5776;51.814;4.510;2023-06-14T01:03:20;2.78;;;1.65;;
11439;SDS011;5776;51.814;4.510;2023-06-14T01:05:49;4.45;;;2.10;;
11439;SDS011;5776;51.814;4.510;2023-06-14T01:11:53;3.95;;;1.83;;
11439;SDS011;5776;51.814;4.510;2023-06-14T01:14:15;3.10;;;2.15;;
11439;SDS011;5776;51.814;4.510;2023-06-14T01:16:43;2.58;;;1.42;;
11439;SDS011;5776;51.814;4.510;2023-06-14T01:19:11;3.30;;;1.88;;
11439;SDS011;5776;51.814;4.510;2023-06-14T01:21:39;3.72;;;2.08;;
11439;SDS011;5776;51.814;4.510;2023-06-14T01:24:07;3.03;;;2.10;;
11439;SDS011;5776;51.814;4.510;2023-06-14T01:26:36;2.65;;;1.85;;
11439;SDS011;5776;51.814;4.510;2023-06-14T01:29:04;3.80;;;1.50;;
11439;SDS011;5776;51.814;4.510;2023-06-14T01:31:31;2.65;;;1.90;;
11439;SDS011;5776;51.814;4.510;2023-06-14T01:34:07;2.95;;;2.00;;
11439;SDS011;5776;51.814;4.510;2023-06-14T01:36:34;2.25;;;1.50;;
11439;SDS011;5776;51.814;4.510;2023-06-14T01:39:02;1.73;;;1.33;;
11439;SDS011;5776;51.814;4.510;2023-06-14T01:41:31;2.88;;;2.05;;
11439;SDS011;5776;51.814;4.510;2023-06-14T01:43:57;2.35;;;1.40;;
11439;SDS011;5776;51.814;4.510;2023-06-14T01:46:24;3.97;;;1.85;;
11439;SDS011;5776;51.814;4.510;2023-06-14T01:48:50;3.22;;;1.70;;
11439;SDS011;5776;51.814;4.510;2023-06-14T01:51:16;2.92;;;1.90;;
11439;SDS011;5776;51.814;4.510;2023-06-14T01:53:42;2.78;;;1.58;;
11439;SDS011;5776;51.814;4.510;2023-06-14T01:56:08;2.97;;;2.00;;
11439;SDS011;5776;51.814;4.510;2023-06-14T01:58:34;5.20;;;1.90;;
11439;SDS011;5776;51.814;4.510;2023-06-14T02:01:00;2.92;;;1.75;;
11439;SDS011;5776;51.814;4.510;2023-06-14T02:03:26;2.85;;;1.48;;
11439;SDS011;5776;51.814;4.510;2023-06-14T02:05:52;3.03;;;1.75;;
11439;SDS011;5776;51.814;4.510;2023-06-14T02:08:18;3.83;;;2.30;;
11439;SDS011;5776;51.814;4.510;2023-06-14T02:10:44;2.03;;;1.42;;
11439;SDS011;5776;51.814;4.510;2023-06-14T02:13:10;5.40;;;1.70;;
11439;SDS011;5776;51.814;4.510;2023-06-14T02:15:37;3.15;;;1.90;;
11439;SDS011;5776;51.814;4.510;2023-06-14T02:18:03;7.40;;;2.00;;
11439;SDS011;5776;51.814;4.510;2023-06-14T02:20:30;2.05;;;1.40;;
11439;SDS011;5776;51.814;4.510;2023-06-14T02:22:56;7.95;;;2.10;;
11439;SDS011;5776;51.814;4.510;2023-06-14T02:25:22;2.72;;;1.58;;
11439;SDS011;5776;51.814;4.510;2023-06-14T02:27:48;5.03;;;1.98;;
11439;SDS011;5776;51.814;4.510;2023-06-14T02:30:14;2.90;;;1.88;;
11439;SDS011;5776;51.814;4.510;2023-06-14T02:32:41;4.60;;;2.00;;
11439;SDS011;5776;51.814;4.510;2023-06-14T02:35:08;3.00;;;1.58;;
11439;SDS011;5776;51.814;4.510;2023-06-14T02:37:34;5.07;;;1.90;;
11439;SDS011;5776;51.814;4.510;2023-06-14T02:40:00;3.55;;;1.88;;
11439;SDS011;5776;51.814;4.510;2023-06-14T02:42:26;4.82;;;1.95;;
11439;SDS011;5776;51.814;4.510;2023-06-14T02:44:52;1.63;;;1.27;;
11439;SDS011;5776;51.814;4.510;2023-06-14T02:47:18;2.88;;;1.98;;
11439;SDS011;5776;51.814;4.510;2023-06-14T02:49:44;5.00;;;1.67;;
11439;SDS011;5776;51.814;4.510;2023-06-14T02:52:12;3.65;;;1.70;;
11439;SDS011;5776;51.814;4.510;2023-06-14T02:54:38;5.85;;;1.70;;
11439;SDS011;5776;51.814;4.510;2023-06-14T02:57:04;4.93;;;2.22;;
11439;SDS011;5776;51.814;4.510;2023-06-14T02:59:32;3.05;;;1.73;;
11439;SDS011;5776;51.814;4.510;2023-06-14T03:01:58;5.40;;;1.90;;
11439;SDS011;5776;51.814;4.510;2023-06-14T03:04:24;5.50;;;1.63;;
11439;SDS011;5776;51.814;4.510;2023-06-14T03:06:51;4.93;;;1.88;;
11439;SDS011;5776;51.814;4.510;2023-06-14T03:09:19;2.70;;;1.55;;
11439;SDS011;5776;51.814;4.510;2023-06-14T03:11:45;6.43;;;2.00;;
11439;SDS011;5776;51.814;4.510;2023-06-14T03:14:11;3.47;;;1.63;;
11439;SDS011;5776;51.814;4.510;2023-06-14T03:16:39;1.77;;;1.50;;
11439;SDS011;5776;51.814;4.510;2023-06-14T03:19:06;4.93;;;2.40;;
11439;SDS011;5776;51.814;4.510;2023-06-14T03:21:32;2.97;;;1.70;;
11439;SDS011;5776;51.814;4.510;2023-06-14T03:24:00;2.75;;;1.48;;
11439;SDS011;5776;51.814;4.510;2023-06-14T03:26:26;2.00;;;1.50;;
11439;SDS011;5776;51.814;4.510;2023-06-14T03:28:52;2.28;;;1.70;;
11439;SDS011;5776;51.814;4.510;2023-06-14T03:31:19;5.85;;;1.60;;
11439;SDS011;5776;51.814;4.510;2023-06-14T03:33:44;4.38;;;1.80;;
11439;SDS011;5776;51.814;4.510;2023-06-14T03:36:10;2.50;;;1.90;;
11439;SDS011;5776;51.814;4.510;2023-06-14T03:38:36;3.75;;;1.70;;
11439;SDS011;5776;51.814;4.510;2023-06-14T03:41:02;8.55;;;2.67;;
11439;SDS011;5776;51.814;4.510;2023-06-14T03:43:28;4.93;;;1.83;;
11439;SDS011;5776;51.814;4.510;2023-06-14T03:45:55;4.13;;;1.88;;
11439;SDS011;5776;51.814;4.510;2023-06-14T03:48:22;3.22;;;1.88;;
11439;SDS011;5776;51.814;4.510;2023-06-14T03:50:48;3.25;;;1.50;;
11439;SDS011;5776;51.814;4.510;2023-06-14T03:53:14;4.10;;;1.92;;
11439;SDS011;5776;51.814;4.510;2023-06-14T03:55:40;4.60;;;1.98;;
11439;SDS011;5776;51.814;4.510;2023-06-14T03:58:06;10.38;;;2.20;;
11439;SDS011;5776;51.814;4.510;2023-06-14T04:00:32;9.10;;;2.00;;
11439;SDS011;5776;51.814;4.510;2023-06-14T04:02:58;2.28;;;1.50;;
11439;SDS011;5776;51.814;4.510;2023-06-14T04:05:24;2.55;;;2.03;;
11439;SDS011;5776;51.814;4.510;2023-06-14T04:07:52;3.65;;;2.15;;
11439;SDS011;5776;51.814;4.510;2023-06-14T04:10:21;4.32;;;2.20;;
11439;SDS011;5776;51.814;4.510;2023-06-14T04:12:47;5.00;;;2.05;;
11439;SDS011;5776;51.814;4.510;2023-06-14T04:15:13;3.08;;;1.65;;
11439;SDS011;5776;51.814;4.510;2023-06-14T04:17:39;7.88;;;1.83;;
11439;SDS011;5776;51.814;4.510;2023-06-14T04:20:05;3.58;;;1.80;;
11439;SDS011;5776;51.814;4.510;2023-06-14T04:22:34;4.65;;;2.20;;
11439;SDS011;5776;51.814;4.510;2023-06-14T04:25:02;8.18;;;2.05;;
11439;SDS011;5776;51.814;4.510;2023-06-14T04:27:29;6.32;;;2.58;;
11439;SDS011;5776;51.814;4.510;2023-06-14T04:29:56;2.70;;;1.73;;
11439;SDS011;5776;51.814;4.510;2023-06-14T04:32:26;4.50;;;1.90;;
11439;SDS011;5776;51.814;4.510;2023-06-14T04:34:53;3.92;;;2.13;;
11439;SDS011;5776;51.814;4.510;2023-06-14T04:37:20;3.92;;;1.88;;
11439;SDS011;5776;51.814;4.510;2023-06-14T04:39:47;2.38;;;1.52;;
11439;SDS011;5776;51.814;4.510;2023-06-14T04:42:13;6.72;;;2.13;;
11439;SDS011;5776;51.814;4.510;2023-06-14T04:44:41;2.50;;;1.67;;
11439;SDS011;5776;51.814;4.510;2023-06-14T04:47:10;8.50;;;1.90;;
11439;SDS011;5776;51.814;4.510;2023-06-14T04:49:38;3.80;;;1.70;;
11439;SDS011;5776;51.814;4.510;2023-06-14T04:52:06;5.75;;;2.28;;
11439;SDS011;5776;51.814;4.510;2023-06-14T04:54:32;3.08;;;2.00;;
11439;SDS011;5776;51.814;4.510;2023-06-14T04:56:59;3.05;;;1.63;;
11439;SDS011;5776;51.814;4.510;2023-06-14T04:59:25;3.75;;;2.00;;
11439;SDS011;5776;51.814;4.510;2023-06-14T05:01:51;4.28;;;2.28;;
11439;SDS011;5776;51.814;4.510;2023-06-14T05:04:18;3.35;;;1.90;;
11439;SDS011;5776;51.814;4.510;2023-06-14T05:06:45;6.95;;;2.13;;
11439;SDS011;5776;51.814;4.510;2023-06-14T05:09:13;4.00;;;2.15;;
11439;SDS011;5776;51.814;4.510;2023-06-14T05:11:40;2.95;;;1.60;;
11439;SDS011;5776;51.814;4.510;2023-06-14T05:14:10;5.45;;;2.10;;
11439;SDS011;5776;51.814;4.510;2023-06-14T05:16:37;3.90;;;2.13;;
11439;SDS011;5776;51.814;4.510;2023-06-14T05:19:04;3.08;;;1.42;;
11439;SDS011;5776;51.814;4.510;2023-06-14T05:21:31;5.82;;;1.92;;
11439;SDS011;5776;51.814;4.510;2023-06-14T05:23:59;9.05;;;2.17;;
11439;SDS011;5776;51.814;4.510;2023-06-14T05:26:25;2.78;;;1.80;;
11439;SDS011;5776;51.814;4.510;2023-06-14T05:28:57;4.88;;;1.80;;
11439;SDS011;5776;51.814;4.510;2023-06-14T05:31:27;2.92;;;1.60;;
11439;SDS011;5776;51.814;4.510;2023-06-14T05:33:53;5.40;;;1.55;;
11439;SDS011;5776;51.814;4.510;2023-06-14T05:36:20;5.50;;;1.77;;
11439;SDS011;5776;51.814;4.510;2023-06-14T05:38:49;3.00;;;2.00;;
11439;SDS011;5776;51.814;4.510;2023-06-14T05:41:16;4.95;;;1.90;;
11439;SDS011;5776;51.814;4.510;2023-06-14T05:43:42;4.07;;;2.00;;
11439;SDS011;5776;51.814;4.510;2023-06-14T05:46:08;2.90;;;1.85;;
11439;SDS011;5776;51.814;4.510;2023-06-14T05:48:34;5.70;;;2.08;;
11439;SDS011;5776;51.814;4.510;2023-06-14T05:51:00;5.10;;;2.05;;
11439;SDS011;5776;51.814;4.510;2023-06-14T05:53:26;2.47;;;1.83;;
11439;SDS011;5776;51.814;4.510;2023-06-14T05:55:52;6.00;;;2.22;;
11439;SDS011;5776;51.814;4.510;2023-06-14T05:58:20;5.45;;;2.20;;
11439;SDS011;5776;51.814;4.510;2023-06-14T06:00:47;5.25;;;2.10;;
11439;SDS011;5776;51.814;4.510;2023-06-14T06:03:13;6.28;;;2.00;;
11439;SDS011;5776;51.814;4.510;2023-06-14T06:05:39;2.03;;;1.50;;
11439;SDS011;5776;51.814;4.510;2023-06-14T06:08:05;3.58;;;1.92;;
11439;SDS011;5776;51.814;4.510;2023-06-14T06:10:31;3.80;;;2.08;;
11439;SDS011;5776;51.814;4.510;2023-06-14T06:12:57;2.92;;;1.95;;
11439;SDS011;5776;51.814;4.510;2023-06-14T06:15:23;3.22;;;1.92;;
11439;SDS011;5776;51.814;4.510;2023-06-14T06:17:49;3.13;;;1.63;;
11439;SDS011;5776;51.814;4.510;2023-06-14T06:20:16;2.88;;;2.20;;
11439;SDS011;5776;51.814;4.510;2023-06-14T06:22:43;5.57;;;2.30;;
11439;SDS011;5776;51.814;4.510;2023-06-14T06:25:08;4.97;;;1.80;;
11439;SDS011;5776;51.814;4.510;2023-06-14T06:27:34;8.90;;;2.15;;
11439;SDS011;5776;51.814;4.510;2023-06-14T06:30:03;3.40;;;2.03;;
11439;SDS011;5776;51.814;4.510;2023-06-14T06:32:29;6.78;;;1.98;;
11439;SDS011;5776;51.814;4.510;2023-06-14T06:34:55;3.72;;;2.13;;
11439;SDS011;5776;51.814;4.510;2023-06-14T06:37:21;4.20;;;1.92;;
11439;SDS011;5776;51.814;4.510;2023-06-14T06:39:47;5.03;;;1.80;;
11439;SDS011;5776;51.814;4.510;2023-06-14T06:42:13;4.90;;;2.22;;
11439;SDS011;5776;51.814;4.510;2023-06-14T06:44:39;2.92;;;1.70;;
11439;SDS011;5776;51.814;4.510;2023-06-14T06:47:05;3.42;;;2.03;;
11439;SDS011;5776;51.814;4.510;2023-06-14T06:49:31;5.95;;;1.83;;
11439;SDS011;5776;51.814;4.510;2023-06-14T06:52:06;2.63;;;1.60;;
11439;SDS011;5776;51.814;4.510;2023-06-14T06:54:33;2.53;;;1.50;;
11439;SDS011;5776;51.814;4.510;2023-06-14T06:56:59;4.47;;;2.20;;
11439;SDS011;5776;51.814;4.510;2023-06-14T06:59:27;9.23;;;2.58;;
11439;SDS011;5776;51.814;4.510;2023-06-14T07:01:53;3.90;;;2.08;;
11439;SDS011;5776;51.814;4.510;2023-06-14T07:04:18;3.55;;;2.08;;
11439;SDS011;5776;51.814;4.510;2023-06-14T07:06:45;4.35;;;2.17;;
11439;SDS011;5776;51.814;4.510;2023-06-14T07:09:12;3.17;;;1.83;;
11439;SDS011;5776;51.814;4.510;2023-06-14T07:11:40;3.95;;;2.03;;
11439;SDS011;5776;51.814;4.510;2023-06-14T07:14:07;5.32;;;2.10;;
11439;SDS011;5776;51.814;4.510;2023-06-14T07:16:32;3.00;;;1.77;;
11439;SDS011;5776;51.814;4.510;2023-06-14T07:18:59;4.72;;;2.47;;
11439;SDS011;5776;51.814;4.510;2023-06-14T07:21:25;3.17;;;2.15;;
11439;SDS011;5776;51.814;4.510;2023-06-14T07:23:55;5.47;;;2.03;;
11439;SDS011;5776;51.814;4.510;2023-06-14T07:26:21;4.53;;;2.03;;
11439;SDS011;5776;51.814;4.510;2023-06-14T07:28:48;4.47;;;2.30;;
11439;SDS011;5776;51.814;4.510;2023-06-14T07:31:15;3.70;;;2.38;;
11439;SDS011;5776;51.814;4.510;2023-06-14T07:33:42;7.82;;;2.40;;
11439;SDS011;5776;51.814;4.510;2023-06-14T07:36:08;4.32;;;2.28;;
11439;SDS011;5776;51.814;4.510;2023-06-14T07:38:34;5.55;;;2.13;;
11439;SDS011;5776;51.814;4.510;2023-06-14T07:41:00;3.55;;;2.03;;
11439;SDS011;5776;51.814;4.510;2023-06-14T07:43:26;3.63;;;2.10;;
11439;SDS011;5776;51.814;4.510;2023-06-14T07:45:52;2.70;;;1.90;;
11439;SDS011;5776;51.814;4.510;2023-06-14T07:48:18;2.65;;;1.75;;
11439;SDS011;5776;51.814;4.510;2023-06-14T07:50:44;3.28;;;2.00;;
11439;SDS011;5776;51.814;4.510;2023-06-14T07:53:10;5.10;;;2.30;;
11439;SDS011;5776;51.814;4.510;2023-06-14T07:55:36;7.43;;;2.17;;
11439;SDS011;5776;51.814;4.510;2023-06-14T07:58:08;2.70;;;1.65;;
11439;SDS011;5776;51.814;4.510;2023-06-14T08:00:34;4.15;;;2.30;;
11439;SDS011;5776;51.814;4.510;2023-06-14T08:03:00;3.80;;;2.17;;
11439;SDS011;5776;51.814;4.510;2023-06-14T08:05:27;5.28;;;1.95;;
11439;SDS011;5776;51.814;4.510;2023-06-14T08:07:53;3.58;;;2.15;;
11439;SDS011;5776;51.814;4.510;2023-06-14T08:10:20;2.67;;;1.98;;
11439;SDS011;5776;51.814;4.510;2023-06-14T08:12:47;4.00;;;2.30;;
11439;SDS011;5776;51.814;4.510;2023-06-14T08:15:15;6.70;;;2.17;;
11439;SDS011;5776;51.814;4.510;2023-06-14T08:17:44;3.72;;;2.00;;
11439;SDS011;5776;51.814;4.510;2023-06-14T08:20:11;12.20;;;3.78;;
11439;SDS011;5776;51.814;4.510;2023-06-14T08:22:39;4.28;;;2.15;;
11439;SDS011;5776;51.814;4.510;2023-06-14T08:25:08;2.70;;;1.67;;
11439;SDS011;5776;51.814;4.510;2023-06-14T08:27:34;4.43;;;1.88;;
11439;SDS011;5776;51.814;4.510;2023-06-14T08:30:01;3.42;;;2.28;;
11439;SDS011;5776;51.814;4.510;2023-06-14T08:32:28;3.10;;;1.73;;
11439;SDS011;5776;51.814;4.510;2023-06-14T08:34:53;2.85;;;1.70;;
11439;SDS011;5776;51.814;4.510;2023-06-14T08:37:19;3.40;;;1.90;;
11439;SDS011;5776;51.814;4.510;2023-06-14T08:39:45;2.35;;;1.85;;
11439;SDS011;5776;51.814;4.510;2023-06-14T08:42:11;3.88;;;1.85;;
11439;SDS011;5776;51.814;4.510;2023-06-14T08:44:39;2.72;;;2.00;;
11439;SDS011;5776;51.814;4.510;2023-06-14T08:47:06;3.05;;;1.83;;
11439;SDS011;5776;51.814;4.510;2023-06-14T08:49:33;4.22;;;2.10;;
11439;SDS011;5776;51.814;4.510;2023-06-14T08:52:03;5.47;;;2.30;;
11439;SDS011;5776;51.814;4.510;2023-06-14T08:54:32;3.13;;;2.00;;
11439;SDS011;5776;51.814;4.510;2023-06-14T08:57:02;2.58;;;1.92;;
11439;SDS011;5776;51.814;4.510;2023-06-14T08:59:29;3.70;;;1.83;;
11439;SDS011;5776;51.814;4.510;2023-06-14T09:01:59;3.85;;;1.92;;
11439;SDS011;5776;51.814;4.510;2023-06-14T09:04:25;2.38;;;1.70;;
11439;SDS011;5776;51.814;4.510;2023-06-14T09:06:58;5.95;;;1.77;;
11439;SDS011;5776;51.814;4.510;2023-06-14T09:09:24;4.88;;;2.00;;
11439;SDS011;5776;51.814;4.510;2023-06-14T09:11:51;7.07;;;2.30;;
11439;SDS011;5776;51.814;4.510;2023-06-14T09:14:18;5.15;;;1.85;;
11439;SDS011;5776;51.814;4.510;2023-06-14T09:16:44;2.47;;;1.83;;
11439;SDS011;5776;51.814;4.510;2023-06-14T09:19:14;8.90;;;2.25;;
11439;SDS011;5776;51.814;4.510;2023-06-14T09:21:48;2.15;;;1.30;;
11439;SDS011;5776;51.814;4.510;2023-06-14T09:24:14;5.22;;;2.20;;
11439;SDS011;5776;51.814;4.510;2023-06-14T09:26:39;3.67;;;2.10;;
11439;SDS011;5776;51.814;4.510;2023-06-14T09:29:07;3.20;;;1.92;;
11439;SDS011;5776;51.814;4.510;2023-06-14T09:31:35;5.10;;;2.03;;
11439;SDS011;5776;51.814;4.510;2023-06-14T09:34:02;4.18;;;1.67;;
11439;SDS011;5776;51.814;4.510;2023-06-14T09:36:31;2.90;;;2.00;;
11439;SDS011;5776;51.814;4.510;2023-06-14T09:38:58;1.98;;;1.70;;
11439;SDS011;5776;51.814;4.510;2023-06-14T09:41:35;17.67;;;2.50;;
11439;SDS011;5776;51.814;4.510;2023-06-14T09:44:05;4.25;;;1.45;;
11439;SDS011;5776;51.814;4.510;2023-06-14T09:46:33;6.18;;;2.00;;
11439;SDS011;5776;51.814;4.510;2023-06-14T09:48:59;2.58;;;1.95;;
11439;SDS011;5776;51.814;4.510;2023-06-14T09:51:27;2.80;;;1.60;;
11439;SDS011;5776;51.814;4.510;2023-06-14T09:54:01;1.92;;;1.38;;
11439;SDS011;5776;51.814;4.510;2023-06-14T09:56:31;3.05;;;1.85;;
11439;SDS011;5776;51.814;4.510;2023-06-14T09:59:03;2.53;;;1.45;;
11439;SDS011;5776;51.814;4.510;2023-06-14T10:01:31;4.35;;;1.60;;
11439;SDS011;5776;51.814;4.510;2023-06-14T10:04:00;2.10;;;1.50;;
11439;SDS011;5776;51.814;4.510;2023-06-14T10:06:29;3.20;;;1.30;;
11439;SDS011;5776;51.814;4.510;2023-06-14T10:08:56;2.85;;;1.45;;
11439;SDS011;5776;51.814;4.510;2023-06-14T10:11:25;6.57;;;1.90;;
11439;SDS011;5776;51.814;4.510;2023-06-14T10:13:52;5.53;;;1.80;;
11439;SDS011;5776;51.814;4.510;2023-06-14T10:16:22;2.88;;;1.65;;
11439;SDS011;5776;51.814;4.510;2023-06-14T10:19:11;2.53;;;1.60;;
11439;SDS011;5776;51.814;4.510;2023-06-14T10:21:41;4.40;;;1.80;;
11439;SDS011;5776;51.814;4.510;2023-06-14T10:24:19;2.55;;;1.63;;
11439;SDS011;5776;51.814;4.510;2023-06-14T10:26:50;7.28;;;1.90;;
11439;SDS011;5776;51.814;4.510;2023-06-14T10:29:17;5.32;;;1.30;;
11439;SDS011;5776;51.814;4.510;2023-06-14T10:31:43;1.83;;;1.40;;
11439;SDS011;5776;51.814;4.510;2023-06-14T10:34:24;2.80;;;1.40;;
11439;SDS011;5776;51.814;4.510;2023-06-14T10:37:05;4.60;;;1.65;;
11439;SDS011;5776;51.814;4.510;2023-06-14T10:39:39;3.45;;;1.63;;
11439;SDS011;5776;51.814;4.510;2023-06-14T10:42:11;4.40;;;1.67;;
11439;SDS011;5776;51.814;4.510;2023-06-14T10:44:38;3.17;;;1.60;;
11439;SDS011;5776;51.814;4.510;2023-06-14T10:47:20;4.28;;;2.15;;
11439;SDS011;5776;51.814;4.510;2023-06-14T10:49:57;4.25;;;1.30;;
11439;SDS011;5776;51.814;4.510;2023-06-14T10:52:33;2.00;;;1.13;;
11439;SDS011;5776;51.814;4.510;2023-06-14T10:55:16;2.38;;;1.25;;
11439;SDS011;5776;51.814;4.510;2023-06-14T10:57:53;2.35;;;1.33;;
11439;SDS011;5776;51.814;4.510;2023-06-14T11:00:24;5.32;;;1.40;;
11439;SDS011;5776;51.814;4.510;2023-06-14T11:05:57;5.63;;;1.33;;
11439;SDS011;5776;51.814;4.510;2023-06-14T11:11:05;1.52;;;1.05;;
11439;SDS011;5776;51.814;4.510;2023-06-14T11:13:32;1.60;;;0.98;;
11439;SDS011;5776;51.814;4.510;2023-06-14T11:15:59;3.42;;;1.10;;
11439;SDS011;5776;51.814;4.510;2023-06-14T11:18:25;5.80;;;1.00;;
11439;SDS011;5776;51.814;4.510;2023-06-14T11:20:53;2.65;;;0.90;;
11439;SDS011;5776;51.814;4.510;2023-06-14T11:23:19;1.23;;;1.02;;
11439;SDS011;5776;51.814;4.510;2023-06-14T11:25:52;2.90;;;1.05;;
11439;SDS011;5776;51.814;4.510;2023-06-14T11:28:18;1.67;;;0.90;;
11439;SDS011;5776;51.814;4.510;2023-06-14T11:30:47;3.65;;;2.15;;
11439;SDS011;5776;51.814;4.510;2023-06-14T11:33:17;1.70;;;1.10;;
11439;SDS011;5776;51.814;4.510;2023-06-14T11:35:43;1.90;;;1.00;;
11439;SDS011;5776;51.814;4.510;2023-06-14T11:38:11;3.25;;;0.98;;
11439;SDS011;5776;51.814;4.510;2023-06-14T11:40:37;1.00;;;0.70;;
11439;SDS011;5776;51.814;4.510;2023-06-14T11:43:04;1.75;;;0.88;;
11439;SDS011;5776;51.814;4.510;2023-06-14T11:45:30;1.70;;;1.13;;
11439;SDS011;5776;51.814;4.510;2023-06-14T11:47:56;3.95;;;1.00;;
11439;SDS011;5776;51.814;4.510;2023-06-14T11:50:22;3.13;;;0.80;;
11439;SDS011;5776;51.814;4.510;2023-06-14T11:52:55;2.15;;;0.82;;
11439;SDS011;5776;51.814;4.510;2023-06-14T11:55:23;2.35;;;0.80;;
11439;SDS011;5776;51.814;4.510;2023-06-14T11:57:50;3.83;;;1.23;;
11439;SDS011;5776;51.814;4.510;2023-06-14T12:00:16;1.73;;;1.00;;
11439;SDS011;5776;51.814;4.510;2023-06-14T12:02:42;1.35;;;1.00;;
11439;SDS011;5776;51.814;4.510;2023-06-14T12:05:20;1.23;;;0.80;;
11439;SDS011;5776;51.814;4.510;2023-06-14T12:07:47;2.65;;;1.10;;
11439;SDS011;5776;51.814;4.510;2023-06-14T12:10:14;2.75;;;0.98;;
11439;SDS011;5776;51.814;4.510;2023-06-14T12:12:40;6.22;;;1.17;;
11439;SDS011;5776;51.814;4.510;2023-06-14T12:15:08;1.67;;;0.88;;
11439;SDS011;5776;51.814;4.510;2023-06-14T12:17:36;5.93;;;1.10;;
11439;SDS011;5776;51.814;4.510;2023-06-14T12:20:06;1.13;;;0.70;;
11439;SDS011;5776;51.814;4.510;2023-06-14T12:22:55;4.13;;;1.10;;
11439;SDS011;5776;51.814;4.510;2023-06-14T12:25:23;1.75;;;1.00;;
11439;SDS011;5776;51.814;4.510;2023-06-14T12:28:03;2.10;;;0.80;;
11439;SDS011;5776;51.814;4.510;2023-06-14T12:30:31;3.20;;;1.00;;
11439;SDS011;5776;51.814;4.510;2023-06-14T12:32:57;2.83;;;0.93;;
11439;SDS011;5776;51.814;4.510;2023-06-14T12:35:23;4.80;;;0.85;;
11439;SDS011;5776;51.814;4.510;2023-06-14T12:37:49;2.88;;;1.15;;
11439;SDS011;5776;51.814;4.510;2023-06-14T12:40:15;1.33;;;0.80;;
11439;SDS011;5776;51.814;4.510;2023-06-14T12:42:41;1.25;;;0.80;;
11439;SDS011;5776;51.814;4.510;2023-06-14T12:45:08;1.33;;;1.08;;
11439;SDS011;5776;51.814;4.510;2023-06-14T12:47:34;1.80;;;0.80;;
11439;SDS011;5776;51.814;4.510;2023-06-14T12:50:01;2.88;;;1.00;;
11439;SDS011;5776;51.814;4.510;2023-06-14T12:52:27;1.98;;;0.90;;
11439;SDS011;5776;51.814;4.510;2023-06-14T12:54:53;4.25;;;1.10;;
11439;SDS011;5776;51.814;4.510;2023-06-14T12:57:19;4.88;;;1.40;;
11439;SDS011;5776;51.814;4.510;2023-06-14T12:59:45;3.97;;;0.90;;
11439;SDS011;5776;51.814;4.510;2023-06-14T13:04:38;1.10;;;0.90;;
11439;SDS011;5776;51.814;4.510;2023-06-14T13:07:04;1.48;;;0.82;;
11439;SDS011;5776;51.814;4.510;2023-06-14T13:09:31;2.78;;;1.27;;
11439;SDS011;5776;51.814;4.510;2023-06-14T13:11:56;1.33;;;0.77;;
11439;SDS011;5776;51.814;4.510;2023-06-14T13:14:22;2.05;;;0.90;;
11439;SDS011;5776;51.814;4.510;2023-06-14T13:16:48;3.72;;;1.63;;
11439;SDS011;5776;51.814;4.510;2023-06-14T13:19:14;4.80;;;0.95;;
11439;SDS011;5776;51.814;4.510;2023-06-14T13:21:40;3.60;;;1.08;;
11439;SDS011;5776;51.814;4.510;2023-06-14T13:24:06;3.65;;;1.10;;
11439;SDS011;5776;51.814;4.510;2023-06-14T13:26:33;2.58;;;1.00;;
11439;SDS011;5776;51.814;4.510;2023-06-14T13:28:59;1.70;;;0.82;;
11439;SDS011;5776;51.814;4.510;2023-06-14T13:31:25;4.63;;;1.08;;
11439;SDS011;5776;51.814;4.510;2023-06-14T13:33:51;2.30;;;0.80;;
11439;SDS011;5776;51.814;4.510;2023-06-14T13:36:17;4.95;;;1.05;;
11439;SDS011;5776;51.814;4.510;2023-06-14T13:38:43;3.15;;;1.00;;
11439;SDS011;5776;51.814;4.510;2023-06-14T13:41:09;2.47;;;1.00;;
11439;SDS011;5776;51.814;4.510;2023-06-14T13:43:35;1.42;;;0.90;;
11439;SDS011;5776;51.814;4.510;2023-06-14T13:46:01;2.55;;;1.17;;
11439;SDS011;5776;51.814;4.510;2023-06-14T13:48:27;2.03;;;1.00;;
11439;SDS011;5776;51.814;4.510;2023-06-14T13:50:52;1.00;;;0.80;;
11439;SDS011;5776;51.814;4.510;2023-06-14T13:53:18;2.78;;;1.00;;
11439;SDS011;5776;51.814;4.510;2023-06-14T13:55:44;1.52;;;0.80;;
11439;SDS011;5776;51.814;4.510;2023-06-14T13:58:10;1.95;;;0.95;;
11439;SDS011;5776;51.814;4.510;2023-06-14T14:00:36;1.55;;;0.90;;
11439;SDS011;5776;51.814;4.510;2023-06-14T14:03:06;4.45;;;1.00;;
11439;SDS011;5776;51.814;4.510;2023-06-14T14:05:32;1.92;;;1.02;;
11439;SDS011;5776;51.814;4.510;2023-06-14T14:07:58;2.88;;;1.10;;
11439;SDS011;5776;51.814;4.510;2023-06-14T14:10:24;1.95;;;0.95;;
11439;SDS011;5776;51.814;4.510;2023-06-14T14:12:51;2.10;;;1.10;;
11439;SDS011;5776;51.814;4.510;2023-06-14T14:15:18;2.85;;;0.93;;
11439;SDS011;5776;51.814;4.510;2023-06-14T14:17:44;3.55;;;1.35;;
11439;SDS011;5776;51.814;4.510;2023-06-14T14:20:10;3.58;;;0.95;;
11439;SDS011;5776;51.814;4.510;2023-06-14T14:22:41;2.47;;;1.02;;
11439;SDS011;5776;51.814;4.510;2023-06-14T14:25:08;5.53;;;1.15;;
11439;SDS011;5776;51.814;4.510;2023-06-14T14:27:34;2.47;;;0.98;;
11439;SDS011;5776;51.814;4.510;2023-06-14T14:30:01;2.97;;;1.23;;
11439;SDS011;5776;51.814;4.510;2023-06-14T14:32:28;2.15;;;1.00;;
11439;SDS011;5776;51.814;4.510;2023-06-14T14:34:53;1.10;;;0.70;;
11439;SDS011;5776;51.814;4.510;2023-06-14T14:37:19;5.75;;;1.35;;
11439;SDS011;5776;51.814;4.510;2023-06-14T14:39:45;1.83;;;0.95;;
11439;SDS011;5776;51.814;4.510;2023-06-14T14:42:11;3.50;;;0.93;;
11439;SDS011;5776;51.814;4.510;2023-06-14T14:44:38;1.40;;;0.77;;
11439;SDS011;5776;51.814;4.510;2023-06-14T14:47:05;2.58;;;1.38;;
11439;SDS011;5776;51.814;4.510;2023-06-14T14:49:31;3.97;;;1.05;;
11439;SDS011;5776;51.814;4.510;2023-06-14T14:51:58;1.58;;;1.08;;
11439;SDS011;5776;51.814;4.510;2023-06-14T14:54:23;6.28;;;1.00;;
11439;SDS011;5776;51.814;4.510;2023-06-14T14:56:51;1.83;;;0.88;;
11439;SDS011;5776;51.814;4.510;2023-06-14T14:59:17;2.78;;;1.20;;
11439;SDS011;5776;51.814;4.510;2023-06-14T15:01:44;3.25;;;1.10;;
11439;SDS011;5776;51.814;4.510;2023-06-14T15:04:10;1.05;;;0.85;;
11439;SDS011;5776;51.814;4.510;2023-06-14T15:06:37;1.38;;;1.00;;
11439;SDS011;5776;51.814;4.510;2023-06-14T15:09:06;1.88;;;0.70;;
11439;SDS011;5776;51.814;4.510;2023-06-14T15:11:32;1.05;;;0.80;;
11439;SDS011;5776;51.814;4.510;2023-06-14T15:13:58;2.53;;;0.88;;